createdAt,value
2022-12-27T00:01:12.164Z,24.07
2022-12-27T00:03:40.434Z,25.67
2022-12-27T00:06:12.020Z,26.17
2022-12-27T00:08:40.064Z,30.03
2022-12-27T00:11:10.733Z,25.10
2022-12-27T00:13:38.871Z,24.17
2022-12-27T00:16:08.491Z,25.63
2022-12-27T00:18:36.826Z,22.63
2022-12-27T00:21:06.223Z,20.70
2022-12-27T00:23:37.477Z,20.23
2022-12-27T00:26:07.621Z,17.73
2022-12-27T00:28:36.359Z,20.93
2022-12-27T00:31:05.468Z,17.03
2022-12-27T00:33:35.410Z,19.50
2022-12-27T00:36:05.509Z,16.17
2022-12-27T00:38:35.207Z,17.93
2022-12-27T00:41:03.835Z,17.90
2022-12-27T00:43:32.461Z,17.03
2022-12-27T00:46:00.730Z,19.77
2022-12-27T00:48:28.736Z,14.83
2022-12-27T00:51:00.337Z,13.87
2022-12-27T00:53:29.096Z,19.63
2022-12-27T00:55:59.222Z,14.17
2022-12-27T00:58:27.681Z,15.07
2022-12-27T01:00:55.670Z,15.13
2022-12-27T01:03:23.708Z,15.13
2022-12-27T01:05:51.705Z,14.47
2022-12-27T01:08:19.704Z,15.13
2022-12-27T01:10:47.702Z,15.50
2022-12-27T01:13:17.045Z,16.90
2022-12-27T01:15:45.100Z,14.03
2022-12-27T01:18:13.122Z,13.63
2022-12-27T01:20:41.365Z,14.73
2022-12-27T01:23:09.369Z,15.07
2022-12-27T01:25:37.856Z,15.23
2022-12-27T01:28:06.471Z,11.73
2022-12-27T01:30:35.881Z,12.00
2022-12-27T01:33:03.950Z,14.83
2022-12-27T01:35:31.903Z,12.33
2022-12-27T01:37:59.911Z,15.13
2022-12-27T01:40:27.913Z,17.27
2022-12-27T01:42:55.753Z,13.10
2022-12-27T01:45:25.050Z,12.80
2022-12-27T01:47:59.973Z,13.37
2022-12-27T01:50:33.287Z,12.67
2022-12-27T01:53:09.714Z,14.97
2022-12-27T01:55:41.631Z,13.43
2022-12-27T01:58:14.070Z,13.87
2022-12-27T02:00:44.027Z,14.13
2022-12-27T02:03:17.027Z,15.87
2022-12-27T02:05:45.148Z,18.00
2022-12-27T02:08:28.046Z,15.93
2022-12-27T02:10:58.208Z,14.87
2022-12-27T02:13:26.723Z,14.67
2022-12-27T02:15:54.726Z,17.17
2022-12-27T02:18:24.197Z,19.97
2022-12-27T02:21:12.059Z,16.50
2022-12-27T02:24:08.549Z,15.47
2022-12-27T02:27:03.470Z,15.80
2022-12-27T02:29:53.575Z,16.57
2022-12-27T02:32:28.258Z,15.67
2022-12-27T02:35:03.605Z,17.13
2022-12-27T02:37:35.280Z,20.20
2022-12-27T02:40:19.848Z,16.73
2022-12-27T02:43:11.475Z,17.37
2022-12-27T02:46:04.743Z,15.50
2022-12-27T02:48:50.415Z,16.23
2022-12-27T02:51:50.548Z,12.23
2022-12-27T02:54:35.866Z,14.43
2022-12-27T02:57:13.823Z,12.20
2022-12-27T03:00:21.041Z,10.23
2022-12-27T03:03:23.942Z,13.30
2022-12-27T03:06:37.797Z,10.57
2022-12-27T03:09:35.170Z,10.73
2022-12-27T03:12:25.691Z,11.10
2022-12-27T03:15:18.506Z,9.53
2022-12-27T03:17:54.770Z,14.27
2022-12-27T03:20:41.086Z,11.03
2022-12-27T03:23:27.835Z,11.23
2022-12-27T03:25:59.124Z,10.30
2022-12-27T03:28:48.854Z,10.07
2022-12-27T03:31:38.399Z,8.23
2022-12-27T03:34:24.973Z,9.10
2022-12-27T03:37:12.795Z,7.47
2022-12-27T03:39:48.605Z,5.03
2022-12-27T03:42:39.344Z,5.23
2022-12-27T03:45:08.608Z,4.70
2022-12-27T03:47:39.070Z,4.67
2022-12-27T03:50:13.212Z,4.37
2022-12-27T03:52:45.131Z,6.40
2022-12-27T03:55:13.439Z,4.53
2022-12-27T03:57:42.942Z,6.07
2022-12-27T04:00:12.553Z,4.90
2022-12-27T04:02:40.710Z,5.93
2022-12-27T04:05:10.790Z,4.97
2022-12-27T04:07:38.843Z,6.17
2022-12-27T04:10:24.729Z,4.93
2022-12-27T04:13:10.362Z,6.77
2022-12-27T04:15:56.045Z,5.00
2022-12-27T04:18:41.599Z,4.80
2022-12-27T04:21:28.281Z,5.87
2022-12-27T04:24:13.953Z,5.20
2022-12-27T04:26:59.520Z,4.10
2022-12-27T04:29:45.122Z,4.90
2022-12-27T04:32:30.638Z,5.70
2022-12-27T04:34:58.652Z,5.27
2022-12-27T04:37:27.989Z,8.10
2022-12-27T04:40:09.895Z,6.00
2022-12-27T04:42:55.699Z,6.43
2022-12-27T04:45:41.523Z,6.17
2022-12-27T04:48:30.903Z,5.47
2022-12-27T04:51:16.414Z,6.70
2022-12-27T04:54:03.148Z,5.57
2022-12-27T04:56:31.172Z,5.27
2022-12-27T04:59:16.785Z,7.33
2022-12-27T05:02:02.418Z,5.47
2022-12-27T05:04:30.955Z,5.13
2022-12-27T05:07:19.752Z,5.50
2022-12-27T05:10:06.990Z,4.83
2022-12-27T05:12:52.380Z,3.93
2022-12-27T05:15:20.385Z,5.93
2022-12-27T05:17:48.393Z,6.23
2022-12-27T05:20:16.477Z,9.13
2022-12-27T05:23:01.941Z,5.83
2022-12-27T05:25:38.133Z,5.97
2022-12-27T05:28:08.551Z,5.37
2022-12-27T05:30:37.399Z,5.60
2022-12-27T05:33:06.084Z,6.13
2022-12-27T05:35:34.736Z,5.97
2022-12-27T05:38:03.269Z,8.13
2022-12-27T05:40:32.715Z,5.67
2022-12-27T05:43:01.566Z,6.07
2022-12-27T05:45:30.148Z,8.50
2022-12-27T05:47:59.424Z,4.97
2022-12-27T05:50:27.653Z,8.10
2022-12-27T05:52:56.565Z,6.87
2022-12-27T05:55:24.628Z,7.33
2022-12-27T05:57:53.963Z,9.27
2022-12-27T06:00:22.105Z,12.37
2022-12-27T06:02:50.228Z,10.57
2022-12-27T06:05:18.344Z,8.50
2022-12-27T06:07:46.353Z,9.07
2022-12-27T06:10:14.481Z,10.73
2022-12-27T06:12:42.461Z,9.33
2022-12-27T06:15:12.917Z,9.57
2022-12-27T06:17:41.159Z,8.43
2022-12-27T06:20:09.806Z,8.80
2022-12-27T06:22:37.875Z,9.17
2022-12-27T06:25:10.813Z,14.27
2022-12-27T06:27:42.230Z,14.13
2022-12-27T06:30:13.201Z,12.30
2022-12-27T06:32:41.195Z,16.80
2022-12-27T06:35:11.249Z,12.67
2022-12-27T06:37:39.333Z,13.73
2022-12-27T06:40:08.556Z,12.83
2022-12-27T06:42:36.577Z,12.07
2022-12-27T06:45:05.978Z,11.77
2022-12-27T06:47:35.351Z,13.20
2022-12-27T06:50:03.645Z,14.20
2022-12-27T06:52:31.630Z,15.43
2022-12-27T06:54:59.674Z,11.47
2022-12-27T06:57:27.702Z,10.10
2022-12-27T06:59:55.715Z,12.27
2022-12-27T07:02:23.799Z,10.43
2022-12-27T07:04:53.192Z,14.73
2022-12-27T07:07:21.155Z,11.83
2022-12-27T07:09:49.159Z,11.40
2022-12-27T07:12:17.190Z,15.77
2022-12-27T07:14:45.158Z,14.57
2022-12-27T07:17:13.157Z,16.10
2022-12-27T07:19:41.244Z,12.13
2022-12-27T07:22:10.650Z,20.03
2022-12-27T07:24:38.612Z,13.27
2022-12-27T07:27:06.653Z,17.07
2022-12-27T07:29:34.648Z,17.53
2022-12-27T07:32:02.732Z,15.33
2022-12-27T07:34:30.761Z,13.93
2022-12-27T07:36:58.686Z,12.73
2022-12-27T07:39:28.003Z,12.67
2022-12-27T07:41:55.981Z,18.00
2022-12-27T07:44:24.004Z,16.23
2022-12-27T07:46:52.416Z,21.47
2022-12-27T07:49:20.374Z,13.90
2022-12-27T07:51:48.345Z,16.43
2022-12-27T07:54:16.313Z,16.30
2022-12-27T07:56:45.718Z,19.77
2022-12-27T07:59:14.564Z,10.97
2022-12-27T08:02:00.045Z,20.83
2022-12-27T08:04:28.199Z,16.97
2022-12-27T08:06:59.213Z,16.17
2022-12-27T08:09:30.353Z,17.43
2022-12-27T08:11:59.717Z,14.63
2022-12-27T08:14:27.683Z,13.33
2022-12-27T08:16:57.652Z,17.03
2022-12-27T08:19:25.646Z,17.23
2022-12-27T08:21:53.618Z,13.73
2022-12-27T08:24:21.600Z,17.53
2022-12-27T08:26:49.578Z,18.03
2022-12-27T08:29:18.925Z,15.30
2022-12-27T08:31:46.945Z,14.93
2022-12-27T08:34:14.981Z,13.60
2022-12-27T08:36:55.236Z,14.07
2022-12-27T08:39:24.394Z,13.50
2022-12-27T08:41:54.246Z,19.97
2022-12-27T08:44:23.720Z,15.23
2022-12-27T08:46:51.691Z,15.47
2022-12-27T08:49:19.678Z,15.40
2022-12-27T08:51:47.689Z,17.23
2022-12-27T08:54:15.684Z,16.77
2022-12-27T08:56:43.687Z,15.50
2022-12-27T08:59:11.645Z,16.43
2022-12-27T09:01:41.081Z,19.73
2022-12-27T09:04:09.186Z,14.90
2022-12-27T09:06:37.263Z,15.57
2022-12-27T09:09:05.377Z,18.27
2022-12-27T09:11:35.289Z,17.40
2022-12-27T09:14:05.529Z,15.87
2022-12-27T09:16:35.645Z,15.60
2022-12-27T09:19:05.403Z,16.33
2022-12-27T09:21:35.322Z,16.83
2022-12-27T09:24:03.912Z,16.03
2022-12-27T09:26:32.274Z,18.70
2022-12-27T09:29:01.453Z,20.40
2022-12-27T09:31:30.023Z,21.40
2022-12-27T09:33:58.578Z,17.00
2022-12-27T09:36:29.566Z,13.10
2022-12-27T09:38:59.173Z,13.53
2022-12-27T09:42:45.133Z,14.93
2022-12-27T09:44:37.665Z,11.07
2022-12-27T09:47:11.372Z,14.03
2022-12-27T09:49:43.524Z,14.90
2022-12-27T09:52:17.181Z,22.60
2022-12-27T09:54:57.874Z,23.57
2022-12-27T09:57:34.312Z,17.40
2022-12-27T10:00:05.927Z,20.97
2022-12-27T10:02:35.633Z,25.90
2022-12-27T10:05:21.554Z,15.17
2022-12-27T10:08:03.461Z,14.53
2022-12-27T10:10:42.217Z,15.67
2022-12-27T10:13:27.173Z,14.63
2022-12-27T10:16:08.605Z,20.23
2022-12-27T10:18:45.937Z,14.30
2022-12-27T10:21:20.716Z,11.97
2022-12-27T10:23:55.326Z,11.47
2022-12-27T10:26:23.500Z,15.30
2022-12-27T10:28:57.283Z,13.47
2022-12-27T10:31:26.885Z,12.63
2022-12-27T10:33:55.559Z,12.80
2022-12-27T10:36:26.116Z,17.20
2022-12-27T10:38:56.077Z,15.73
2022-12-27T10:41:33.435Z,14.27
2022-12-27T10:44:01.480Z,14.67
2022-12-27T10:46:33.443Z,13.10
2022-12-27T10:49:20.697Z,13.60
2022-12-27T10:51:50.741Z,12.67
2022-12-27T10:54:24.583Z,14.23
2022-12-27T10:56:52.772Z,15.23
2022-12-27T10:59:22.856Z,23.03
2022-12-27T11:02:08.437Z,10.77
2022-12-27T11:04:36.511Z,14.97
2022-12-27T11:07:14.078Z,13.93
2022-12-27T11:09:50.595Z,13.53
2022-12-27T11:12:21.654Z,16.47
2022-12-27T11:14:58.409Z,16.53
2022-12-27T11:17:29.217Z,11.67
2022-12-27T11:19:59.620Z,11.23
2022-12-27T11:22:28.310Z,16.37
2022-12-27T11:25:01.281Z,12.97
2022-12-27T11:27:31.158Z,13.93
2022-12-27T11:30:00.221Z,12.33
2022-12-27T11:32:28.452Z,11.80
2022-12-27T11:34:57.915Z,14.83
2022-12-27T11:37:28.311Z,11.23
2022-12-27T11:40:21.200Z,12.70
2022-12-27T11:42:54.320Z,18.10
2022-12-27T11:45:26.888Z,11.50
2022-12-27T11:48:01.048Z,12.53
2022-12-27T11:51:03.271Z,16.20
2022-12-27T11:54:06.037Z,12.40
2022-12-27T11:56:38.010Z,13.80
2022-12-27T11:59:34.482Z,11.67
2022-12-27T12:02:18.168Z,11.83
2022-12-27T12:05:07.344Z,10.50
2022-12-27T12:07:58.423Z,13.10
2022-12-27T12:10:40.406Z,11.23
2022-12-27T12:13:39.413Z,14.60
2022-12-27T12:16:35.980Z,10.83
2022-12-27T12:19:13.992Z,14.00
2022-12-27T12:21:50.267Z,13.83
2022-12-27T12:24:36.108Z,12.90
2022-12-27T12:27:23.401Z,9.87
2022-12-27T12:30:27.011Z,11.07
2022-12-27T12:33:17.677Z,12.20
2022-12-27T12:36:00.363Z,13.47
2022-12-27T12:38:36.540Z,16.83
2022-12-27T12:41:41.098Z,11.73
2022-12-27T12:44:49.107Z,15.33
2022-12-27T12:47:37.998Z,16.10
2022-12-27T12:50:24.925Z,15.97
2022-12-27T12:53:13.998Z,12.17
2022-12-27T12:55:55.208Z,12.43
2022-12-27T12:58:38.656Z,12.97
2022-12-27T13:01:22.062Z,10.60
2022-12-27T13:04:32.720Z,13.33
2022-12-27T13:07:23.248Z,10.23
2022-12-27T13:10:24.763Z,7.67
2022-12-27T13:12:59.187Z,15.27
2022-12-27T13:15:39.901Z,9.93
2022-12-27T13:18:20.979Z,10.83
2022-12-27T13:21:04.705Z,9.73
2022-12-27T13:23:42.593Z,11.53
2022-12-27T13:26:21.755Z,12.37
2022-12-27T13:29:04.225Z,10.73
2022-12-27T13:31:41.109Z,9.20
2022-12-27T13:34:25.147Z,9.40
2022-12-27T13:37:17.227Z,10.27
2022-12-27T13:40:01.501Z,10.33
2022-12-27T13:42:47.145Z,12.40
2022-12-27T13:45:29.129Z,11.23
2022-12-27T13:48:11.052Z,9.30
2022-12-27T13:50:57.667Z,10.03
2022-12-27T13:54:05.160Z,9.23
2022-12-27T13:56:53.888Z,11.30
2022-12-27T14:00:05.327Z,10.07
2022-12-27T14:03:02.729Z,9.07
2022-12-27T14:05:57.577Z,11.30
2022-12-27T14:08:50.627Z,8.37
2022-12-27T14:11:33.159Z,9.53
2022-12-27T14:14:03.393Z,9.53
2022-12-27T14:16:40.348Z,12.90
2022-12-27T14:19:27.654Z,14.17
2022-12-27T14:22:16.661Z,14.53
2022-12-27T14:25:09.369Z,18.77
2022-12-27T14:28:10.494Z,14.93
2022-12-27T14:31:02.943Z,10.37
2022-12-27T14:34:35.351Z,16.03
2022-12-27T14:37:34.370Z,12.40
2022-12-27T14:40:35.197Z,16.53
2022-12-27T14:43:33.030Z,18.83
2022-12-27T14:46:33.732Z,23.50
2022-12-27T14:49:35.055Z,15.03
2022-12-27T14:52:33.553Z,11.60
2022-12-27T14:55:30.685Z,20.33
2022-12-27T14:58:24.852Z,22.37
2022-12-27T15:01:10.345Z,20.57
2022-12-27T15:03:54.483Z,18.73
2022-12-27T15:06:44.838Z,13.73
2022-12-27T15:09:20.058Z,12.63
2022-12-27T15:11:57.853Z,12.23
2022-12-27T15:14:49.893Z,12.37
2022-12-27T15:17:29.285Z,16.47
2022-12-27T15:20:25.915Z,17.53
2022-12-27T15:23:12.001Z,15.17
2022-12-27T15:25:55.681Z,15.97
2022-12-27T15:28:35.762Z,22.57
2022-12-27T15:31:10.298Z,20.80
2022-12-27T15:33:51.004Z,23.17
2022-12-27T15:36:21.051Z,30.27
2022-12-27T15:38:53.988Z,21.93
2022-12-27T15:41:37.060Z,19.30
2022-12-27T15:44:26.637Z,21.33
2022-12-27T15:47:36.158Z,19.50
2022-12-27T15:50:22.466Z,15.17
2022-12-27T15:53:10.741Z,10.73
2022-12-27T15:56:06.678Z,14.63
2022-12-27T15:58:35.413Z,18.97
2022-12-27T16:01:28.868Z,17.87
2022-12-27T16:03:59.672Z,18.63
2022-12-27T16:06:51.164Z,19.00
2022-12-27T16:09:24.124Z,20.40
2022-12-27T16:12:01.102Z,19.60
2022-12-27T16:14:31.854Z,18.07
2022-12-27T16:17:32.314Z,18.13
2022-12-27T16:20:15.347Z,19.67
2022-12-27T16:22:46.058Z,17.27
2022-12-27T16:25:31.449Z,23.20
2022-12-27T16:28:03.803Z,18.50
2022-12-27T16:30:44.114Z,20.03
2022-12-27T16:33:37.558Z,18.53
2022-12-27T16:36:15.277Z,17.47
2022-12-27T16:38:48.011Z,15.93
2022-12-27T16:41:20.264Z,20.77
2022-12-27T16:44:04.385Z,23.77
2022-12-27T16:47:10.386Z,21.03
2022-12-27T16:50:19.710Z,20.70
2022-12-27T16:53:02.321Z,19.93
2022-12-27T16:56:01.106Z,16.60
2022-12-27T16:58:37.736Z,22.53
2022-12-27T17:01:07.157Z,21.87
2022-12-27T17:03:49.232Z,23.10
2022-12-27T17:06:57.260Z,22.40
2022-12-27T17:09:45.093Z,26.27
2022-12-27T17:12:33.848Z,19.57
2022-12-27T17:15:06.106Z,23.50
2022-12-27T17:17:34.882Z,22.90
2022-12-27T17:20:06.170Z,23.43
2022-12-27T17:22:39.543Z,24.23
2022-12-27T17:25:15.021Z,21.20
2022-12-27T17:27:56.500Z,23.93
2022-12-27T17:30:26.279Z,24.87
2022-12-27T17:33:14.118Z,22.43
2022-12-27T17:36:15.641Z,23.43
2022-12-27T17:39:00.750Z,30.67
2022-12-27T17:41:58.441Z,20.47
2022-12-27T17:44:41.273Z,26.17
2022-12-27T17:47:40.867Z,22.77
2022-12-27T17:50:15.494Z,23.30
2022-12-27T17:53:01.250Z,22.30
2022-12-27T17:55:48.063Z,21.63
2022-12-27T17:58:17.722Z,17.33
2022-12-27T18:00:54.892Z,23.93
2022-12-27T18:03:26.115Z,23.70
2022-12-27T18:05:54.158Z,20.93
2022-12-27T18:08:29.076Z,19.77
2022-12-27T18:10:59.200Z,23.73
2022-12-27T18:13:30.766Z,20.83
2022-12-27T18:15:59.848Z,23.43
2022-12-27T18:18:29.773Z,20.60
2022-12-27T18:20:59.696Z,17.83
2022-12-27T18:23:28.324Z,25.50
2022-12-27T18:26:05.764Z,21.80
2022-12-27T18:28:37.326Z,22.97
2022-12-27T18:31:12.604Z,20.50
2022-12-27T18:33:43.172Z,19.90
2022-12-27T18:36:16.223Z,23.37
2022-12-27T18:38:47.908Z,25.53
2022-12-27T18:41:20.840Z,19.87
2022-12-27T18:43:51.332Z,20.20
2022-12-27T18:46:29.049Z,23.03
2022-12-27T18:48:57.471Z,22.43
2022-12-27T18:51:34.092Z,24.73
2022-12-27T18:54:02.484Z,23.60
2022-12-27T18:56:34.093Z,20.97
2022-12-27T18:59:05.828Z,22.73
2022-12-27T19:01:41.775Z,23.23
2022-12-27T19:04:25.043Z,23.73
2022-12-27T19:06:59.248Z,23.27
2022-12-27T19:09:29.930Z,21.50
2022-12-27T19:12:01.852Z,25.80
2022-12-27T19:14:38.567Z,26.63
2022-12-27T19:17:10.976Z,27.40
2022-12-27T19:19:39.527Z,24.00
2022-12-27T19:22:32.675Z,23.10
2022-12-27T19:25:01.385Z,26.70
2022-12-27T19:27:30.705Z,27.63
2022-12-27T19:29:58.710Z,27.70
2022-12-27T19:32:32.624Z,24.87
2022-12-27T19:35:03.049Z,27.30
2022-12-27T19:37:33.487Z,26.43
2022-12-27T19:40:01.657Z,28.07
2022-12-27T19:42:34.887Z,27.53
2022-12-27T19:45:03.342Z,28.10
2022-12-27T19:47:31.459Z,27.83
2022-12-27T19:49:59.460Z,31.47
2022-12-27T19:52:28.190Z,29.60
2022-12-27T19:55:02.578Z,29.17
2022-12-27T19:57:31.937Z,25.90
2022-12-27T20:00:00.235Z,27.47
2022-12-27T20:02:28.680Z,29.77
2022-12-27T20:04:56.737Z,26.67
2022-12-27T20:07:26.384Z,30.57
2022-12-27T20:09:54.403Z,28.73
2022-12-27T20:12:22.511Z,29.43
2022-12-27T20:14:52.033Z,29.57
2022-12-27T20:17:20.421Z,33.90
2022-12-27T20:19:48.643Z,33.93
2022-12-27T20:22:16.634Z,26.87
2022-12-27T20:24:46.548Z,29.03
2022-12-27T20:27:14.526Z,29.80
2022-12-27T20:29:42.533Z,34.97
2022-12-27T20:32:11.922Z,35.03
2022-12-27T20:34:39.996Z,30.83
2022-12-27T20:37:08.189Z,29.20
2022-12-27T20:39:36.209Z,31.10
2022-12-27T20:42:04.253Z,35.00
2022-12-27T20:44:32.415Z,32.40
2022-12-27T20:47:00.448Z,36.87
2022-12-27T20:49:29.804Z,30.43
2022-12-27T20:51:57.787Z,27.73
2022-12-27T20:54:26.133Z,30.90
2022-12-27T20:56:54.087Z,31.07
2022-12-27T20:59:22.535Z,32.70
2022-12-27T21:01:56.564Z,29.77
2022-12-27T21:04:26.575Z,30.37
2022-12-27T21:06:56.090Z,28.23
2022-12-27T21:09:24.137Z,38.60
2022-12-27T21:11:52.988Z,29.10
2022-12-27T21:14:20.966Z,30.97
2022-12-27T21:16:49.302Z,30.20
2022-12-27T21:19:17.327Z,27.17
2022-12-27T21:21:45.744Z,33.33
2022-12-27T21:24:15.194Z,33.67
2022-12-27T21:26:43.183Z,32.33
2022-12-27T21:29:12.266Z,30.93
2022-12-27T21:31:40.297Z,36.67
2022-12-27T21:34:08.439Z,32.50
2022-12-27T21:36:38.288Z,29.93
2022-12-27T21:39:07.517Z,33.90
2022-12-27T21:41:38.896Z,26.33
2022-12-27T21:44:07.480Z,28.43
2022-12-27T21:46:37.948Z,28.20
2022-12-27T21:49:07.523Z,26.70
2022-12-27T21:51:37.322Z,23.40
2022-12-27T21:54:05.701Z,33.87
2022-12-27T21:56:34.226Z,32.30
2022-12-27T21:59:07.232Z,27.77
2022-12-27T22:01:49.572Z,28.67
2022-12-27T22:04:18.890Z,29.43
2022-12-27T22:06:47.901Z,27.30
2022-12-27T22:09:16.770Z,29.50
2022-12-27T22:11:45.012Z,25.30
2022-12-27T22:14:14.326Z,32.83
2022-12-27T22:16:42.412Z,30.13
2022-12-27T22:19:12.420Z,28.97
2022-12-27T22:21:42.078Z,34.17
2022-12-27T22:24:13.033Z,30.30
2022-12-27T22:26:42.262Z,32.90
2022-12-27T22:29:10.996Z,28.13
2022-12-27T22:31:41.131Z,33.27
2022-12-27T22:34:09.177Z,31.40
2022-12-27T22:36:37.152Z,33.60
2022-12-27T22:39:05.838Z,30.43
2022-12-27T22:41:35.408Z,31.00
2022-12-27T22:44:05.425Z,27.07
2022-12-27T22:49:23.012Z,27.57
2022-12-27T22:51:50.970Z,27.30
2022-12-27T22:54:18.948Z,27.73
2022-12-27T22:56:46.910Z,25.83
2022-12-27T22:59:17.192Z,29.87
2022-12-27T23:01:45.836Z,31.00
2022-12-27T23:04:15.092Z,28.93
2022-12-27T23:06:45.280Z,27.60
2022-12-27T23:09:13.272Z,26.10
2022-12-27T23:11:42.164Z,26.37
2022-12-27T23:14:13.075Z,23.77
2022-12-27T23:16:42.950Z,28.50
2022-12-27T23:19:11.734Z,23.67
2022-12-27T23:21:39.996Z,35.20
2022-12-27T23:24:10.773Z,28.13
2022-12-27T23:26:39.184Z,32.30
2022-12-27T23:29:07.285Z,29.83
2022-12-27T23:31:35.722Z,27.73
2022-12-27T23:34:27.622Z,27.60
2022-12-27T23:36:56.552Z,30.93
2022-12-27T23:39:25.926Z,33.53
2022-12-27T23:41:53.952Z,27.10
2022-12-27T23:44:34.113Z,29.57
2022-12-27T23:47:04.190Z,30.40
2022-12-27T23:49:32.363Z,32.47
2022-12-27T23:52:00.387Z,32.53
2022-12-27T23:54:29.744Z,28.37
2022-12-27T23:56:57.827Z,31.87
2022-12-27T23:59:25.864Z,28.33
